Time;durP1;ratioP1;P1;durP2;ratioP2;P2;SDS_P1;SDS_P2;PMS_P1;PMS_P2;Temp;Humidity;BMP_temperature;BMP_pressure;BME280_temperature;BME280_humidity;BME280_pressure;Samples;Min_cycle;Max_cycle;Signal;HPM_P1;HPM_P2
2023/05/30 00:01:20;;;;;;;5.65;4.32;;;12.70;99.90;;;;;;5015859;28;20391;-86
2023/05/30 00:03:46;;;;;;;4.10;3.67;;;17.40;99.90;;;;;;5015440;28;20910;-86
2023/05/30 00:06:12;;;;;;;4.00;3.60;;;14.70;99.90;;;;;;5015051;28;20434;-86
2023/05/30 00:08:39;;;;;;;5.25;4.07;;;14.50;99.90;;;;;;5015551;28;20804;-86
2023/05/30 00:11:05;;;;;;;5.90;4.80;;;13.70;99.90;;;;;;5032832;28;20426;-86
2023/05/30 00:13:32;;;;;;;4.70;4.15;;;13.30;99.90;;;;;;5014837;28;20387;-87
2023/05/30 00:15:58;;;;;;;4.80;4.07;;;13.40;99.90;;;;;;5015243;28;20449;-87
2023/05/30 00:18:25;;;;;;;4.78;3.83;;;13.20;99.90;;;;;;5015344;28;20394;-87
2023/05/30 00:20:51;;;;;;;6.03;4.22;;;13.40;99.90;;;;;;5015699;28;20974;-86
2023/05/30 00:23:17;;;;;;;4.68;4.00;;;13.50;99.90;;;;;;5032951;28;20395;-86
2023/05/30 00:25:45;;;;;;;5.03;4.20;;;14.00;99.90;;;;;;5032322;28;20399;-86
2023/05/30 00:28:11;;;;;;;5.10;4.20;;;16.40;99.90;;;;;;5033489;28;20460;-86
2023/05/30 00:30:37;;;;;;;4.05;3.65;;;13.90;99.90;;;;;;5029559;28;20395;-86
2023/05/30 00:33:03;;;;;;;4.20;3.50;;;13.70;99.90;;;;;;5014682;28;20394;-86
2023/05/30 00:35:28;;;;;;;4.17;3.77;;;13.30;99.90;;;;;;5031551;28;20398;-86
2023/05/30 00:37:54;;;;;;;4.72;3.60;;;13.20;99.90;;;;;;5058377;28;20387;-85
2023/05/30 00:40:20;;;;;;;6.05;4.43;;;13.50;99.90;;;;;;5041234;28;20407;-86
2023/05/30 00:42:45;;;;;;;5.72;4.10;;;13.90;99.90;;;;;;5037272;28;20475;-88
2023/05/30 00:45:11;;;;;;;4.10;3.70;;;14.30;99.90;;;;;;5014259;28;20486;-86
2023/05/30 00:47:37;;;;;;;4.73;3.90;;;16.70;99.90;;;;;;5014198;28;20431;-86
2023/05/30 00:50:03;;;;;;;4.70;3.80;;;15.60;99.90;;;;;;5014496;28;20474;-87
2023/05/30 00:52:29;;;;;;;6.30;4.03;;;14.00;99.90;;;;;;5011267;28;20463;-86
2023/05/30 00:54:55;;;;;;;5.50;4.13;;;14.20;99.90;;;;;;5012283;28;20383;-85
2023/05/30 00:57:21;;;;;;;6.78;4.38;;;13.10;99.90;;;;;;5005945;28;20395;-86
2023/05/30 00:59:48;;;;;;;5.43;3.60;;;13.70;99.90;;;;;;5014486;28;20429;-86
2023/05/30 01:02:16;;;;;;;4.90;3.70;;;14.90;99.90;;;;;;5014713;28;20379;-87
2023/05/30 01:04:42;;;;;;;8.18;4.18;;;13.20;99.90;;;;;;5003897;28;20570;-86
2023/05/30 01:07:10;;;;;;;4.40;4.00;;;12.50;99.90;;;;;;5011796;28;20476;-87
2023/05/30 01:09:37;;;;;;;5.20;4.10;;;13.30;99.90;;;;;;5012687;28;20444;-87
2023/05/30 01:12:21;;;;;;;4.32;3.60;;;14.90;99.90;;;;;;5013597;28;20392;-87
2023/05/30 01:14:52;;;;;;;5.95;4.13;;;13.40;99.90;;;;;;5020988;28;20385;-85
2023/05/30 01:17:30;;;;;;;4.20;3.80;;;13.80;99.90;;;;;;5035642;28;20429;-85
2023/05/30 01:20:18;;;;;;;5.05;3.90;;;14.00;99.90;;;;;;5020731;28;20418;-85
2023/05/30 01:23:22;;;;;;;6.07;4.10;;;13.90;99.90;;;;;;5020199;28;20392;-86
2023/05/30 01:25:59;;;;;;;4.18;3.60;;;16.30;99.90;;;;;;4980792;28;20428;-87
2023/05/30 01:28:29;;;;;;;4.25;3.65;;;14.00;99.90;;;;;;5020738;28;20439;-87
2023/05/30 01:30:56;;;;;;;5.28;4.38;;;14.00;99.90;;;;;;5020505;28;20396;-87
2023/05/30 01:33:23;;;;;;;4.45;3.70;;;12.70;99.90;;;;;;5020549;28;20403;-87
2023/05/30 01:35:48;;;;;;;4.45;4.00;;;15.00;99.90;;;;;;5019638;28;20397;-86
2023/05/30 01:38:15;;;;;;;4.43;3.90;;;13.30;99.90;;;;;;5037701;28;20397;-85
2023/05/30 01:40:48;;;;;;;4.97;4.10;;;13.20;99.90;;;;;;5037253;28;20495;-87
2023/05/30 01:43:26;;;;;;;5.63;4.43;;;13.50;99.90;;;;;;5020598;28;20400;-86
2023/05/30 01:46:00;;;;;;;4.80;3.90;;;15.20;99.90;;;;;;5015966;28;20630;-86
2023/05/30 01:48:55;;;;;;;5.78;4.10;;;12.20;99.90;;;;;;4995984;28;20425;-86
2023/05/30 01:51:47;;;;;;;4.70;4.00;;;13.30;99.90;;;;;;5013518;28;20509;-86
2023/05/30 01:54:16;;;;;;;5.78;4.20;;;13.20;99.90;;;;;;5013553;28;20389;-87
2023/05/30 01:56:44;;;;;;;4.38;3.80;;;12.40;99.90;;;;;;5013516;28;20385;-86
2023/05/30 01:59:10;;;;;;;4.83;4.33;;;15.90;99.90;;;;;;5012314;28;20400;-86
2023/05/30 02:01:36;;;;;;;4.85;4.07;;;13.40;99.90;;;;;;5012261;28;20910;-86
2023/05/30 02:04:02;;;;;;;4.40;4.00;;;13.50;99.90;;;;;;4999621;28;20387;-86
2023/05/30 02:06:28;;;;;;;4.95;3.92;;;15.30;99.90;;;;;;5013178;28;20915;-86
2023/05/30 02:08:54;;;;;;;5.80;4.40;;;12.20;99.90;;;;;;5031707;28;20530;-86
2023/05/30 02:11:19;;;;;;;4.53;4.00;;;13.00;99.90;;;;;;5031494;28;20387;-86
2023/05/30 02:13:45;;;;;;;5.70;4.47;;;12.60;99.90;;;;;;5017268;28;20390;-87
2023/05/30 02:16:12;;;;;;;4.57;3.80;;;13.10;99.90;;;;;;5030775;28;20406;-87
2023/05/30 02:18:40;;;;;;;5.25;3.80;;;13.20;99.90;;;;;;5013524;28;20427;-85
2023/05/30 02:21:06;;;;;;;4.68;4.03;;;15.70;99.90;;;;;;5013092;28;20449;-87
2023/05/30 02:23:32;;;;;;;5.18;4.47;;;12.10;99.90;;;;;;5013011;28;20765;-87
2023/05/30 02:25:57;;;;;;;7.10;4.53;;;12.00;99.90;;;;;;5012145;28;20395;-87
2023/05/30 02:28:23;;;;;;;4.57;3.90;;;11.70;99.90;;;;;;5031071;28;20386;-87
2023/05/30 02:30:48;;;;;;;4.75;3.75;;;15.20;99.90;;;;;;5030968;28;20382;-86
2023/05/30 02:33:14;;;;;;;5.47;4.07;;;12.30;99.90;;;;;;5030780;28;20390;-87
2023/05/30 02:35:39;;;;;;;6.97;4.53;;;13.30;99.90;;;;;;5032513;28;20402;-87
2023/05/30 02:38:05;;;;;;;4.60;4.20;;;12.40;99.90;;;;;;5017197;28;20395;-87
2023/05/30 02:40:31;;;;;;;6.28;4.25;;;12.10;99.90;;;;;;5016858;28;20545;-87
2023/05/30 02:42:56;;;;;;;5.70;4.50;;;16.30;99.90;;;;;;5015809;28;20738;-87
2023/05/30 02:45:22;;;;;;;5.10;3.90;;;13.10;99.90;;;;;;5033907;28;20910;-85
2023/05/30 02:47:47;;;;;;;4.80;4.30;;;12.40;99.90;;;;;;5017652;28;20969;-86
2023/05/30 02:50:13;;;;;;;5.57;4.28;;;12.00;99.90;;;;;;5034296;28;20390;-87
2023/05/30 02:52:38;;;;;;;4.67;4.13;;;12.20;99.90;;;;;;5031614;28;20419;-86
2023/05/30 02:55:04;;;;;;;4.40;3.90;;;12.10;99.90;;;;;;5060425;28;20398;-86
2023/05/30 02:57:30;;;;;;;5.35;4.50;;;12.90;99.90;;;;;;5040672;28;20386;-87
2023/05/30 02:59:56;;;;;;;6.00;4.43;;;12.50;99.90;;;;;;5050166;28;20441;-87
2023/05/30 03:02:21;;;;;;;5.32;3.97;;;13.20;99.90;;;;;;5034649;28;20394;-87
2023/05/30 03:04:47;;;;;;;4.65;4.25;;;12.60;99.90;;;;;;5009696;28;20426;-87
2023/05/30 03:07:17;;;;;;;5.00;3.90;;;12.40;99.90;;;;;;5034787;28;20950;-87
2023/05/30 03:09:43;;;;;;;4.67;3.73;;;12.90;99.90;;;;;;5035515;28;20387;-87
2023/05/30 03:12:09;;;;;;;5.10;4.00;;;13.20;99.90;;;;;;5017779;28;20742;-87
2023/05/30 03:14:34;;;;;;;6.05;4.20;;;13.20;99.90;;;;;;5051149;28;20410;-86
2023/05/30 03:17:00;;;;;;;5.50;4.10;;;13.20;99.90;;;;;;5043660;28;20665;-87
2023/05/30 03:19:25;;;;;;;5.70;4.40;;;12.90;99.90;;;;;;5043503;28;20423;-86
2023/05/30 03:21:51;;;;;;;5.33;4.30;;;12.40;99.90;;;;;;5043009;28;20435;-87
2023/05/30 03:24:17;;;;;;;5.15;4.10;;;16.20;99.90;;;;;;5050806;28;20395;-87
2023/05/30 03:26:42;;;;;;;5.18;4.18;;;13.20;99.90;;;;;;5035816;28;20391;-88
2023/05/30 03:29:08;;;;;;;4.70;3.90;;;12.80;99.90;;;;;;5021862;28;20822;-88
2023/05/30 03:31:35;;;;;;;4.80;4.13;;;12.20;99.90;;;;;;5030500;28;20531;-88
2023/05/30 03:34:01;;;;;;;4.80;3.90;;;12.20;99.90;;;;;;5023335;28;20395;-88
2023/05/30 03:36:27;;;;;;;5.37;4.30;;;14.50;99.90;;;;;;5021125;28;20454;-87
2023/05/30 03:38:54;;;;;;;5.00;4.17;;;11.80;99.90;;;;;;5024936;28;20885;-87
2023/05/30 03:41:20;;;;;;;4.20;3.80;;;12.70;99.90;;;;;;5026923;28;20411;-87
2023/05/30 03:43:46;;;;;;;4.80;4.40;;;13.90;99.90;;;;;;5022939;28;20877;-87
2023/05/30 03:46:14;;;;;;;7.00;4.60;;;11.80;99.90;;;;;;5016516;28;20391;-87
2023/05/30 03:48:40;;;;;;;4.95;4.20;;;13.10;99.90;;;;;;5016997;28;20383;-87
2023/05/30 03:51:05;;;;;;;5.30;4.30;;;16.00;99.90;;;;;;5034586;28;20486;-87
2023/05/30 03:53:31;;;;;;;6.60;4.20;;;12.90;99.90;;;;;;5035004;28;20478;-87
2023/05/30 03:55:56;;;;;;;4.77;4.03;;;12.80;99.90;;;;;;5017382;28;20398;-87
2023/05/30 03:58:22;;;;;;;3.70;3.40;;;16.10;99.90;;;;;;5018014;28;20452;-87
2023/05/30 04:00:47;;;;;;;4.80;4.20;;;12.80;99.90;;;;;;5016845;28;20469;-87
2023/05/30 04:03:13;;;;;;;4.80;4.30;;;13.00;99.90;;;;;;5035746;28;20418;-87
2023/05/30 04:05:38;;;;;;;6.47;4.20;;;13.10;99.90;;;;;;5034039;28;20375;-87
2023/05/30 04:08:05;;;;;;;5.60;3.92;;;13.70;99.90;;;;;;5016551;28;20417;-87
2023/05/30 04:10:30;;;;;;;6.15;3.78;;;13.00;99.90;;;;;;5015645;28;20387;-87
2023/05/30 04:12:56;;;;;;;4.03;3.50;;;12.60;99.90;;;;;;5015551;28;20890;-87
2023/05/30 04:15:21;;;;;;;5.03;4.17;;;12.90;99.90;;;;;;5015053;28;20501;-87
2023/05/30 04:17:47;;;;;;;4.90;4.25;;;15.20;99.90;;;;;;5032766;28;20402;-87
2023/05/30 04:20:13;;;;;;;4.30;3.90;;;12.40;99.90;;;;;;5033110;28;20411;-87
2023/05/30 04:22:38;;;;;;;4.68;4.10;;;12.80;99.90;;;;;;5015704;28;20761;-87
2023/05/30 04:25:05;;;;;;;4.72;3.97;;;13.10;99.90;;;;;;5015290;28;20391;-87
2023/05/30 04:27:31;;;;;;;4.85;3.70;;;13.90;99.90;;;;;;5015053;28;20380;-87
2023/05/30 04:29:57;;;;;;;3.97;3.60;;;13.40;99.90;;;;;;5032818;28;20424;-87
2023/05/30 04:32:23;;;;;;;4.30;3.90;;;13.10;99.90;;;;;;5032573;28;20433;-87
2023/05/30 04:34:48;;;;;;;4.45;3.70;;;13.20;99.90;;;;;;5015061;28;20881;-87
2023/05/30 04:37:17;;;;;;;4.70;4.10;;;13.30;99.90;;;;;;5032277;28;20399;-87
2023/05/30 04:39:44;;;;;;;4.10;3.70;;;13.40;99.90;;;;;;5032031;28;20407;-87
2023/05/30 04:42:09;;;;;;;5.40;3.80;;;12.60;99.90;;;;;;5032902;28;20403;-87
2023/05/30 04:44:37;;;;;;;6.47;4.03;;;13.60;99.90;;;;;;5032331;28;20421;-86
2023/05/30 04:47:10;;;;;;;4.20;3.80;;;13.40;99.90;;;;;;5014176;28;20387;-87
2023/05/30 04:49:39;;;;;;;4.85;3.83;;;14.10;99.90;;;;;;5032324;28;20391;-87
2023/05/30 04:52:06;;;;;;;5.95;4.05;;;13.50;99.90;;;;;;5032179;28;20387;-87
2023/05/30 04:54:32;;;;;;;5.53;3.63;;;14.30;99.90;;;;;;5014720;28;20493;-87
2023/05/30 04:56:57;;;;;;;4.10;3.70;;;13.50;99.90;;;;;;5031376;28;20801;-87
2023/05/30 04:59:23;;;;;;;5.18;3.83;;;13.30;99.90;;;;;;5014521;28;20549;-86
2023/05/30 05:01:49;;;;;;;5.50;4.10;;;13.80;99.90;;;;;;5014327;28;20388;-87
2023/05/30 05:04:14;;;;;;;5.10;4.30;;;14.10;99.90;;;;;;5008004;28;20393;-88
2023/05/30 05:06:40;;;;;;;4.03;3.63;;;14.90;99.90;;;;;;5012371;28;20979;-85
2023/05/30 05:09:05;;;;;;;5.18;3.80;;;14.40;99.90;;;;;;5012475;28;20427;-85
2023/05/30 05:11:31;;;;;;;5.18;3.80;;;14.10;99.90;;;;;;4994724;28;20407;-86
2023/05/30 05:13:56;;;;;;;4.60;3.70;;;18.50;99.90;;;;;;5029453;28;20403;-87
2023/05/30 05:16:22;;;;;;;5.15;4.10;;;16.90;99.90;;;;;;5039128;28;20458;-87
2023/05/30 05:18:47;;;;;;;4.80;3.57;;;13.90;99.90;;;;;;5039847;28;20402;-86
2023/05/30 05:21:14;;;;;;;5.13;3.70;;;17.00;99.90;;;;;;5040421;28;20417;-87
2023/05/30 05:23:39;;;;;;;5.47;3.42;;;16.70;99.90;;;;;;5042518;28;20422;-88
2023/05/30 05:26:05;;;;;;;5.43;3.70;;;17.10;99.90;;;;;;5013640;28;20387;-87
2023/05/30 05:28:31;;;;;;;4.00;3.50;;;16.70;99.90;;;;;;5014339;28;20391;-88
2023/05/30 05:30:58;;;;;;;4.88;3.92;;;15.80;99.90;;;;;;5031459;28;20489;-88
2023/05/30 05:33:23;;;;;;;3.97;3.58;;;15.70;99.90;;;;;;5031638;28;20391;-87
2023/05/30 05:35:49;;;;;;;5.43;3.50;;;15.70;99.90;;;;;;5030890;28;20407;-88
2023/05/30 05:38:16;;;;;;;4.65;4.00;;;15.20;99.90;;;;;;5018469;28;20927;-87
2023/05/30 05:40:42;;;;;;;3.80;3.40;;;14.80;99.90;;;;;;5035044;28;20407;-87
2023/05/30 05:43:08;;;;;;;4.97;3.90;;;17.90;99.90;;;;;;5082408;22;20416;-82
2023/05/30 05:45:33;;;;;;;4.47;3.88;;;15.90;99.90;;;;;;5077745;28;20409;-82
2023/05/30 05:48:00;;;;;;;4.07;3.67;;;16.20;99.90;;;;;;5076687;28;20378;-82
2023/05/30 05:50:25;;;;;;;4.60;3.78;;;16.00;99.90;;;;;;5068503;28;20795;-82
2023/05/30 05:52:51;;;;;;;4.47;3.70;;;16.30;99.90;;;;;;5054257;28;20385;-82
2023/05/30 05:55:16;;;;;;;6.40;3.83;;;16.50;99.90;;;;;;5053430;28;20459;-82
2023/05/30 05:57:42;;;;;;;5.80;3.85;;;16.60;99.90;;;;;;5051601;28;20880;-82
2023/05/30 06:00:08;;;;;;;6.80;4.10;;;16.50;99.90;;;;;;5034485;28;20404;-82
2023/05/30 06:02:34;;;;;;;5.07;3.95;;;16.30;99.90;;;;;;5028533;28;20423;-83
2023/05/30 06:04:59;;;;;;;5.70;3.85;;;18.20;99.90;;;;;;5020305;28;20391;-82
2023/05/30 06:07:25;;;;;;;5.40;3.80;;;16.50;99.90;;;;;;5033599;28;20394;-82
2023/05/30 06:09:50;;;;;;;4.55;4.15;;;16.70;99.90;;;;;;5034764;28;20387;-82
2023/05/30 06:12:16;;;;;;;5.37;3.90;;;16.50;99.90;;;;;;5034746;28;20484;-82
2023/05/30 06:14:42;;;;;;;4.60;3.93;;;16.60;99.90;;;;;;5034881;28;20426;-82
2023/05/30 06:17:07;;;;;;;4.30;3.80;;;16.70;99.90;;;;;;5034514;28;20386;-83
2023/05/30 06:19:33;;;;;;;4.53;3.80;;;17.40;99.90;;;;;;5038884;28;20407;-83
2023/05/30 06:21:58;;;;;;;4.80;3.80;;;16.70;99.90;;;;;;5035845;28;20886;-82
2023/05/30 06:24:24;;;;;;;4.82;4.32;;;16.70;99.90;;;;;;5054738;28;20399;-83
2023/05/30 06:26:49;;;;;;;4.17;3.77;;;16.50;99.90;;;;;;5055118;28;20400;-82
2023/05/30 06:29:15;;;;;;;5.43;4.00;;;16.30;99.90;;;;;;5055696;28;20384;-82
2023/05/30 06:31:40;;;;;;;5.20;4.05;;;16.10;99.90;;;;;;5054115;28;20389;-82
2023/05/30 06:34:06;;;;;;;4.53;4.13;;;16.30;99.90;;;;;;5035651;28;20738;-82
2023/05/30 06:36:32;;;;;;;8.10;4.60;;;16.00;99.90;;;;;;5034984;28;20387;-82
2023/05/30 06:38:57;;;;;;;5.37;4.40;;;15.90;99.90;;;;;;5017514;28;20796;-82
2023/05/30 06:41:23;;;;;;;5.22;4.45;;;16.20;99.90;;;;;;5034308;28;20389;-83
2023/05/30 06:43:49;;;;;;;7.90;4.53;;;16.10;99.90;;;;;;5033396;28;20401;-83
2023/05/30 06:46:14;;;;;;;5.50;4.75;;;16.10;99.90;;;;;;5036614;28;20385;-83
2023/05/30 06:48:40;;;;;;;6.70;4.75;;;16.00;99.90;;;;;;5019202;28;20474;-82
2023/05/30 06:51:06;;;;;;;5.77;4.40;;;15.90;99.90;;;;;;5016766;28;20456;-82
2023/05/30 06:53:32;;;;;;;9.27;4.32;;;16.60;99.90;;;;;;5026235;28;20393;-82
2023/05/30 06:55:57;;;;;;;7.23;4.20;;;16.10;99.90;;;;;;5045074;28;20396;-83
2023/05/30 06:58:23;;;;;;;4.87;4.37;;;17.20;99.90;;;;;;5061999;28;20465;-84
2023/05/30 07:00:49;;;;;;;5.63;4.43;;;16.20;99.90;;;;;;5035462;28;20423;-82
2023/05/30 07:03:18;;;;;;;5.23;4.40;;;16.40;99.90;;;;;;5067209;28;20405;-82
2023/05/30 07:05:44;;;;;;;7.90;4.20;;;16.60;99.90;;;;;;5037147;28;20382;-83
2023/05/30 07:08:10;;;;;;;6.80;4.40;;;16.20;99.90;;;;;;5056069;28;20377;-85
2023/05/30 07:10:36;;;;;;;7.55;4.88;;;17.80;99.90;;;;;;5042007;28;20424;-84
2023/05/30 07:13:02;;;;;;;6.07;4.75;;;16.90;99.90;;;;;;5036842;28;20477;-83
2023/05/30 07:15:30;;;;;;;5.97;4.60;;;16.40;99.90;;;;;;5055841;28;20420;-81
2023/05/30 07:17:55;;;;;;;5.78;4.90;;;16.80;99.90;;;;;;5026262;28;20387;-83
2023/05/30 07:20:23;;;;;;;6.90;5.00;;;16.50;99.90;;;;;;5039439;28;20395;-83
2023/05/30 07:22:50;;;;;;;5.32;4.55;;;16.90;99.90;;;;;;5065328;28;20747;-83
2023/05/30 07:25:15;;;;;;;4.90;4.07;;;16.90;99.90;;;;;;5033938;28;20463;-83
2023/05/30 07:27:41;;;;;;;7.13;4.60;;;17.10;99.90;;;;;;5040681;28;20393;-84
2023/05/30 07:30:07;;;;;;;9.53;4.40;;;16.60;99.90;;;;;;5041831;28;20373;-83
2023/05/30 07:32:32;;;;;;;7.07;4.40;;;17.30;99.90;;;;;;5059303;28;20404;-81
2023/05/30 07:34:58;;;;;;;7.05;4.82;;;17.40;99.90;;;;;;5037315;28;20399;-81
2023/05/30 07:37:23;;;;;;;6.93;4.37;;;17.20;99.90;;;;;;5037550;28;20390;-81
2023/05/30 07:39:49;;;;;;;6.55;4.25;;;17.00;99.90;;;;;;5038882;28;20407;-83
2023/05/30 07:42:14;;;;;;;7.90;4.47;;;17.10;99.90;;;;;;5043449;28;20391;-81
2023/05/30 07:44:40;;;;;;;7.63;4.30;;;17.20;99.90;;;;;;5057787;28;20754;-81
2023/05/30 07:47:06;;;;;;;6.13;4.25;;;17.40;99.90;;;;;;5059465;28;20382;-81
2023/05/30 07:49:31;;;;;;;5.93;4.32;;;17.60;99.90;;;;;;5044717;28;20421;-81
2023/05/30 07:51:57;;;;;;;6.50;4.10;;;17.70;99.90;;;;;;5059507;28;20432;-81
2023/05/30 07:54:22;;;;;;;9.40;4.87;;;17.30;99.90;;;;;;5057955;28;20403;-81
2023/05/30 07:56:48;;;;;;;7.20;4.50;;;17.70;99.90;;;;;;5046605;28;20534;-82
2023/05/30 07:59:15;;;;;;;6.22;4.50;;;17.30;99.90;;;;;;5058920;28;22186;-82
2023/05/30 08:01:41;;;;;;;6.30;5.10;;;17.60;99.90;;;;;;5057354;28;20429;-82
2023/05/30 08:04:07;;;;;;;7.65;4.88;;;17.70;99.90;;;;;;5052344;28;20399;-81
2023/05/30 08:06:34;;;;;;;6.13;4.80;;;17.80;99.90;;;;;;5045152;28;20423;-80
2023/05/30 08:09:00;;;;;;;6.90;4.13;;;17.90;99.90;;;;;;5044775;28;20417;-83
2023/05/30 08:11:26;;;;;;;5.40;4.20;;;17.40;99.90;;;;;;5044043;28;20391;-82
2023/05/30 08:13:52;;;;;;;7.27;5.10;;;17.60;99.90;;;;;;5021770;28;20475;-82
2023/05/30 08:16:18;;;;;;;7.70;4.47;;;17.80;99.90;;;;;;5020690;28;20609;-83
2023/05/30 08:18:45;;;;;;;7.13;4.40;;;18.00;99.90;;;;;;5020405;28;20980;-81
2023/05/30 08:21:11;;;;;;;7.40;4.63;;;17.40;99.90;;;;;;5021182;28;20411;-82
2023/05/30 08:23:37;;;;;;;7.15;4.35;;;17.50;99.90;;;;;;5037873;28;20381;-82
2023/05/30 08:26:03;;;;;;;7.20;4.50;;;17.90;99.90;;;;;;5018879;28;20421;-82
2023/05/30 08:28:28;;;;;;;6.28;4.20;;;18.30;99.90;;;;;;5019256;28;20398;-83
2023/05/30 08:30:54;;;;;;;7.88;4.18;;;17.90;99.90;;;;;;5036414;28;20781;-82
2023/05/30 08:33:21;;;;;;;6.53;4.50;;;18.10;99.90;;;;;;5018443;28;20389;-81
2023/05/30 08:35:46;;;;;;;6.38;4.45;;;17.90;99.90;;;;;;5018284;28;20555;-82
2023/05/30 08:38:13;;;;;;;7.07;4.60;;;17.90;99.90;;;;;;5037234;28;20383;-82
2023/05/30 08:40:43;;;;;;;5.85;4.00;;;18.30;99.90;;;;;;5048018;28;20450;-81
2023/05/30 08:43:08;;;;;;;7.47;4.07;;;18.40;99.90;;;;;;5035138;28;20462;-82
2023/05/30 08:45:34;;;;;;;7.07;4.60;;;18.50;99.90;;;;;;5035102;28;20438;-83
2023/05/30 08:48:01;;;;;;;8.68;4.63;;;18.50;99.90;;;;;;5018143;28;20446;-82
2023/05/30 08:50:29;;;;;;;5.30;4.50;;;18.50;99.90;;;;;;5035380;28;20398;-81
2023/05/30 08:53:02;;;;;;;6.45;4.80;;;18.50;99.90;;;;;;5019338;28;20441;-82
2023/05/30 08:55:35;;;;;;;6.37;4.30;;;18.40;99.90;;;;;;5018856;28;20386;-83
2023/05/30 08:58:08;;;;;;;5.70;4.10;;;18.60;99.90;;;;;;5018744;28;20387;-82
2023/05/30 09:00:35;;;;;;;5.35;4.30;;;18.70;99.90;;;;;;5025286;28;20411;-82
2023/05/30 09:03:05;;;;;;;7.13;4.40;;;18.90;99.90;;;;;;5025318;28;20491;-81
2023/05/30 09:05:34;;;;;;;5.80;4.20;;;18.90;99.90;;;;;;5059670;28;20407;-83
2023/05/30 09:08:01;;;;;;;7.32;4.60;;;18.90;99.90;;;;;;5060799;28;20409;-83
2023/05/30 09:10:28;;;;;;;6.77;4.30;;;18.60;99.90;;;;;;5041054;28;20390;-82
2023/05/30 09:12:55;;;;;;;5.07;4.30;;;18.70;99.90;;;;;;5058548;28;20417;-83
2023/05/30 09:15:20;;;;;;;6.10;4.60;;;21.30;99.90;;;;;;5058251;28;20389;-82
2023/05/30 09:17:46;;;;;;;6.60;4.13;;;19.00;99.90;;;;;;5039461;28;20389;-82
2023/05/30 09:20:17;;;;;;;6.88;4.07;;;19.10;99.90;;;;;;5039064;28;20763;-82
2023/05/30 09:22:46;;;;;;;6.97;4.70;;;19.30;99.90;;;;;;5055668;28;20377;-81
2023/05/30 09:25:15;;;;;;;5.20;4.10;;;19.30;99.90;;;;;;5056461;28;20392;-83
2023/05/30 09:27:46;;;;;;;5.82;4.38;;;18.80;99.90;;;;;;5038288;28;20790;-82
2023/05/30 09:30:13;;;;;;;5.88;4.30;;;19.50;99.90;;;;;;5038165;28;20876;-83
2023/05/30 09:32:38;;;;;;;7.35;4.60;;;19.60;99.90;;;;;;5055774;28;20381;-83
2023/05/30 09:35:09;;;;;;;6.55;4.55;;;19.20;99.90;;;;;;5039043;28;20393;-81
2023/05/30 09:37:41;;;;;;;5.90;4.43;;;19.90;99.90;;;;;;5054856;28;20393;-80
2023/05/30 09:40:15;;;;;;;7.15;4.90;;;19.20;99.90;;;;;;5055023;28;20405;-82
2023/05/30 09:42:42;;;;;;;6.65;4.43;;;19.50;99.90;;;;;;5054763;28;20896;-81
2023/05/30 09:45:09;;;;;;;7.05;4.70;;;19.30;99.90;;;;;;5022619;28;20430;-83
2023/05/30 09:47:38;;;;;;;7.30;4.40;;;19.80;99.90;;;;;;5034986;28;20753;-82
2023/05/30 09:50:05;;;;;;;5.20;4.65;;;19.40;99.90;;;;;;5035191;28;20460;-83
2023/05/30 09:52:31;;;;;;;4.30;3.83;;;19.90;99.90;;;;;;5016354;28;20419;-81
2023/05/30 09:54:56;;;;;;;5.73;4.10;;;19.60;99.90;;;;;;5034027;28;20387;-82
2023/05/30 09:57:25;;;;;;;6.67;4.50;;;19.80;99.90;;;;;;5016938;28;21164;-83
2023/05/30 09:59:50;;;;;;;6.03;4.30;;;19.80;99.90;;;;;;5016898;28;20627;-84
2023/05/30 10:02:22;;;;;;;6.55;4.32;;;19.50;99.90;;;;;;5016126;28;20961;-81
2023/05/30 10:04:51;;;;;;;5.60;4.20;;;20.20;99.90;;;;;;5027518;28;20407;-82
2023/05/30 10:07:21;;;;;;;5.70;4.10;;;20.00;99.90;;;;;;5049331;28;20394;-81
2023/05/30 10:09:49;;;;;;;9.00;3.97;;;20.50;99.90;;;;;;5039355;28;20401;-81
2023/05/30 10:12:15;;;;;;;7.15;4.45;;;19.90;99.90;;;;;;5023727;28;20811;-82
2023/05/30 10:14:40;;;;;;;6.45;4.40;;;20.30;99.90;;;;;;5052630;28;20477;-82
2023/05/30 10:17:07;;;;;;;7.33;4.97;;;21.20;99.90;;;;;;5019375;28;20390;-83
2023/05/30 10:19:48;;;;;;;7.17;4.60;;;20.40;30.50;;;;;;5031619;28;20489;-83
2023/05/30 10:22:14;;;;;;;8.10;4.22;;;20.70;99.90;;;;;;5029890;28;20965;-83
2023/05/30 10:24:46;;;;;;;7.13;4.70;;;20.70;99.90;;;;;;5044321;28;20394;-83
2023/05/30 10:27:17;;;;;;;6.03;5.00;;;21.00;99.90;;;;;;5033531;28;20387;-83
2023/05/30 10:29:47;;;;;;;6.55;4.72;;;21.20;99.90;;;;;;5024280;28;20394;-84
2023/05/30 10:32:18;;;;;;;8.68;4.60;;;20.50;99.90;;;;;;5043383;28;20813;-85
2023/05/30 10:34:53;;;;;;;6.10;4.32;;;20.70;99.90;;;;;;5033982;28;20393;-84
2023/05/30 10:37:20;;;;;;;5.53;4.30;;;21.20;99.90;;;;;;5025846;28;20398;-83
2023/05/30 10:39:56;;;;;;;5.82;5.07;;;21.20;99.90;;;;;;5042343;28;20414;-83
2023/05/30 10:42:31;;;;;;;5.38;4.05;;;21.10;99.90;;;;;;5041155;28;20394;-83
2023/05/30 10:45:17;;;;;;;6.53;4.13;;;21.30;99.90;;;;;;5053064;28;20878;-84
2023/05/30 10:48:05;;;;;;;6.20;3.70;;;21.30;99.90;;;;;;5041814;28;20947;-84
2023/05/30 10:50:47;;;;;;;4.00;3.60;;;21.30;99.90;;;;;;5031944;28;20397;-83
2023/05/30 10:53:17;;;;;;;4.83;4.17;;;21.30;99.90;;;;;;5021689;28;20838;-83
2023/05/30 10:55:45;;;;;;;5.10;4.60;;;21.60;99.90;;;;;;5048368;28;20382;-86
2023/05/30 10:58:42;;;;;;;5.65;3.78;;;21.60;99.90;;;;;;5030375;28;20442;-84
2023/05/30 11:01:24;;;;;;;5.27;3.93;;;21.30;99.90;;;;;;5041583;28;20410;-85
2023/05/30 11:03:56;;;;;;;6.30;4.00;;;22.60;99.90;;;;;;5052596;28;20807;-81
2023/05/30 11:06:23;;;;;;;6.25;3.88;;;21.10;11.10;;;;;;5037909;28;20463;-85
2023/05/30 11:09:03;;;;;;;7.97;4.57;;;21.10;99.90;;;;;;5030909;28;20416;-82
2023/05/30 11:11:40;;;;;;;6.35;4.25;;;21.60;1.00;;;;;;5051212;28;20387;-82
2023/05/30 11:14:07;;;;;;;6.75;3.90;;;21.90;30.20;;;;;;5041053;28;20407;-82
2023/05/30 11:16:32;;;;;;;4.60;3.70;;;21.60;99.90;;;;;;5054022;28;20392;-82
2023/05/30 11:19:11;;;;;;;6.30;3.50;;;21.50;19.70;;;;;;5039299;28;20381;-83
2023/05/30 11:21:55;;;;;;;6.30;4.30;;;22.00;99.90;;;;;;5050515;28;20433;-86
2023/05/30 11:24:22;;;;;;;5.82;4.20;;;22.10;29.60;;;;;;5049466;28;20389;-83
2023/05/30 11:27:13;;;;;;;4.80;4.30;;;22.10;99.90;;;;;;5040529;28;20753;-83
2023/05/30 11:29:50;;;;;;;4.78;4.20;;;22.20;88.90;;;;;;5044826;28;20381;-82
2023/05/30 11:32:23;;;;;;;5.65;4.38;;;22.90;32.50;;;;;;5048135;28;20391;-83
2023/05/30 11:34:59;;;;;;;4.87;4.20;;;24.50;37.70;;;;;;5051934;28;20405;-81
2023/05/30 11:37:25;;;;;;;4.40;4.00;;;23.30;99.90;;;;;;5041658;28;20393;-81
2023/05/30 11:39:55;;;;;;;5.40;3.90;;;24.50;1.00;;;;;;5048824;28;20419;-83
2023/05/30 11:42:21;;;;;;;5.57;3.80;;;24.40;1.00;;;;;;5032223;28;20397;-82
2023/05/30 11:44:47;;;;;;;5.85;3.92;;;25.10;1.00;;;;;;5024069;28;20478;-84
2023/05/30 11:47:14;;;;;;;6.32;4.30;;;25.20;1.00;;;;;;5034684;28;20422;-83
2023/05/30 11:49:41;;;;;;;4.20;3.50;;;25.00;1.00;;;;;;5029272;28;20392;-83
2023/05/30 11:52:07;;;;;;;5.57;3.90;;;25.50;1.00;;;;;;5048026;28;20446;-82
2023/05/30 11:54:33;;;;;;;5.23;3.83;;;26.70;1.00;;;;;;5036489;28;20759;-82
2023/05/30 11:56:58;;;;;;;4.25;3.85;;;26.80;1.00;;;;;;5055442;28;20468;-83
2023/05/30 11:59:26;;;;;;;4.30;3.90;;;26.70;1.00;;;;;;5017943;28;20925;-82
2023/05/30 12:01:59;;;;;;;5.90;3.70;;;27.10;1.00;;;;;;5034793;28;20395;-82
2023/05/30 12:04:26;;;;;;;5.53;3.63;;;27.90;1.00;;;;;;5044859;28;20411;-83
2023/05/30 12:06:51;;;;;;;6.00;3.70;;;26.60;1.00;;;;;;5036393;28;20796;-82
2023/05/30 12:09:17;;;;;;;5.67;3.80;;;27.10;1.00;;;;;;5019715;28;20391;-82
2023/05/30 12:11:59;;;;;;;4.25;3.70;;;27.60;1.00;;;;;;5044909;28;20391;-82
2023/05/30 12:14:38;;;;;;;4.50;3.90;;;27.40;1.00;;;;;;5026597;28;20429;-82
2023/05/30 12:17:16;;;;;;;5.60;3.80;;;27.40;1.00;;;;;;5041967;28;21087;-82
2023/05/30 12:19:43;;;;;;;5.40;3.80;;;27.10;1.00;;;;;;5043050;28;20518;-82
2023/05/30 12:22:09;;;;;;;5.22;3.70;;;28.90;1.00;;;;;;5043467;28;20382;-82
2023/05/30 12:24:36;;;;;;;4.40;3.80;;;27.70;1.00;;;;;;5045886;28;20579;-82
2023/05/30 12:27:02;;;;;;;3.90;3.50;;;27.50;1.00;;;;;;5042923;28;20482;-82
2023/05/30 12:29:34;;;;;;;4.00;3.65;;;27.90;1.00;;;;;;5043245;28;20393;-82
2023/05/30 12:32:01;;;;;;;4.43;3.97;;;27.70;1.00;;;;;;5027291;28;20949;-82
2023/05/30 12:34:43;;;;;;;4.18;3.42;;;26.40;1.00;;;;;;5044976;28;20406;-81
2023/05/30 12:37:14;;;;;;;4.28;3.78;;;27.70;1.00;;;;;;5035937;28;20448;-82
2023/05/30 12:39:49;;;;;;;4.75;3.90;;;27.90;1.00;;;;;;5015423;28;20407;-82
2023/05/30 12:42:28;;;;;;;4.70;3.40;;;29.80;1.00;;;;;;5034482;28;20897;-81
2023/05/30 12:44:55;;;;;;;4.50;3.40;;;29.20;1.00;;;;;;5036934;28;20399;-80
2023/05/30 12:47:21;;;;;;;4.23;3.57;;;26.50;1.00;;;;;;5053306;28;20814;-81
2023/05/30 12:49:47;;;;;;;4.20;3.60;;;27.60;1.00;;;;;;5053686;28;20385;-82
2023/05/30 12:52:14;;;;;;;3.60;3.30;;;28.40;1.00;;;;;;5037652;28;20405;-82